Time;durP1;ratioP1;P1;durP2;ratioP2;P2;SDS_P1;SDS_P2;PMS_P1;PMS_P2;Temp;Humidity;BMP_temperature;BMP_pressure;BME280_temperature;BME280_humidity;BME280_pressure;Samples;Min_cycle;Max_cycle;Signal;HPM_P1;HPM_P2
2023/02/23 00:01:46;;;;;;;17.90;8.35;;;23.80;99.90;;;;;;5028504;28;20040;-49
2023/02/23 00:04:12;;;;;;;24.10;8.32;;;23.80;99.90;;;;;;5023904;28;20038;-50
2023/02/23 00:06:38;;;;;;;22.63;9.75;;;23.80;99.90;;;;;;5024902;28;20028;-49
2023/02/23 00:09:09;;;;;;;19.25;8.40;;;23.70;99.90;;;;;;5016892;28;20065;-49
2023/02/23 00:11:35;;;;;;;21.23;7.90;;;23.70;99.90;;;;;;5011485;28;20071;-49
2023/02/23 00:14:02;;;;;;;20.13;9.30;;;23.70;99.90;;;;;;5012754;28;20025;-50
2023/02/23 00:16:28;;;;;;;25.65;9.65;;;23.70;99.90;;;;;;5026305;28;20083;-49
2023/02/23 00:18:59;;;;;;;24.75;10.55;;;23.70;99.90;;;;;;5020561;28;20034;-50
2023/02/23 00:21:34;;;;;;;25.60;9.35;;;23.70;99.90;;;;;;5020007;28;20422;-49
2023/02/23 00:24:10;;;;;;;20.75;11.18;;;23.70;99.90;;;;;;5021984;28;20431;-50
2023/02/23 00:26:38;;;;;;;21.60;9.30;;;23.70;99.90;;;;;;5026921;28;20025;-50
2023/02/23 00:29:10;;;;;;;25.13;10.05;;;23.60;99.90;;;;;;5026584;28;20075;-50
2023/02/23 00:31:37;;;;;;;21.35;9.73;;;23.60;99.90;;;;;;5011563;28;20476;-49
2023/02/23 00:34:04;;;;;;;22.50;10.05;;;23.60;99.90;;;;;;5019030;28;20469;-50
2023/02/23 00:36:32;;;;;;;21.17;9.10;;;23.60;99.90;;;;;;5019046;28;20088;-50
2023/02/23 00:39:01;;;;;;;24.63;9.48;;;23.60;99.90;;;;;;5020739;28;20052;-50
2023/02/23 00:41:28;;;;;;;23.13;9.38;;;23.60;99.90;;;;;;5025398;28;20028;-50
2023/02/23 00:43:56;;;;;;;21.80;9.63;;;23.60;99.90;;;;;;5008205;28;20038;-49
2023/02/23 00:46:23;;;;;;;22.85;9.73;;;23.60;99.90;;;;;;5028245;28;20063;-49
2023/02/23 00:48:50;;;;;;;;;;;23.60;99.90;;;;;;5029149;28;20021;-49
2023/02/23 00:51:17;;;;;;;28.42;9.98;;;23.60;99.90;;;;;;5028934;28;19958;-50
2023/02/23 00:53:43;;;;;;;25.33;10.18;;;23.60;99.90;;;;;;5011921;28;20160;-49
2023/02/23 00:56:12;;;;;;;21.92;9.98;;;23.50;99.90;;;;;;5012763;28;20105;-50
2023/02/23 00:58:38;;;;;;;22.70;9.00;;;23.50;99.90;;;;;;4978641;28;20033;-50
2023/02/23 01:01:11;;;;;;;19.33;9.77;;;23.50;99.90;;;;;;5019488;28;20074;-50
2023/02/23 01:03:38;;;;;;;21.23;10.57;;;23.50;99.90;;;;;;5022356;28;20108;-50
2023/02/23 01:06:08;;;;;;;21.20;9.77;;;23.50;99.90;;;;;;5014073;28;20022;-50
2023/02/23 01:08:37;;;;;;;22.05;9.43;;;23.50;99.90;;;;;;5021474;28;20026;-50
2023/02/23 01:11:11;;;;;;;21.65;9.93;;;23.40;99.90;;;;;;5022741;28;20045;-50
2023/02/23 01:13:39;;;;;;;24.55;10.82;;;23.40;99.90;;;;;;5022330;28;20030;-49
2023/02/23 01:16:09;;;;;;;22.77;9.65;;;23.40;99.90;;;;;;5017119;28;20017;-50
2023/02/23 01:18:36;;;;;;;25.73;9.93;;;23.40;99.90;;;;;;5026813;28;20035;-50
2023/02/23 01:21:04;;;;;;;21.60;10.73;;;23.40;99.90;;;;;;5023618;28;20010;-50
2023/02/23 01:23:30;;;;;;;21.52;9.85;;;23.40;99.90;;;;;;5015898;28;20092;-50
2023/02/23 01:25:56;;;;;;;19.98;10.07;;;23.40;99.90;;;;;;5015689;28;20417;-50
2023/02/23 01:28:22;;;;;;;29.80;10.90;;;23.40;99.90;;;;;;5015756;28;20037;-50
2023/02/23 01:30:48;;;;;;;22.80;9.55;;;23.40;99.90;;;;;;5015682;28;20022;-50
2023/02/23 01:33:14;;;;;;;25.42;9.85;;;23.30;99.90;;;;;;5015732;28;20165;-50
2023/02/23 01:35:40;;;;;;;24.50;9.82;;;23.30;99.90;;;;;;5015691;28;20112;-50
2023/02/23 01:38:06;;;;;;;22.38;10.25;;;23.30;99.90;;;;;;5015894;28;20029;-50
2023/02/23 01:40:35;;;;;;;21.73;10.60;;;23.30;99.90;;;;;;5015840;28;20041;-50
2023/02/23 01:43:24;;;;;;;24.27;10.07;;;23.30;99.90;;;;;;5015588;28;20114;-49
2023/02/23 01:45:54;;;;;;;21.13;11.15;;;23.30;99.90;;;;;;4998553;28;20022;-50
2023/02/23 01:48:33;;;;;;;21.98;10.00;;;23.30;99.90;;;;;;5015455;28;20018;-50
2023/02/23 01:51:10;;;;;;;20.13;9.40;;;23.30;99.90;;;;;;5004150;28;20406;-49
2023/02/23 01:53:40;;;;;;;23.48;10.35;;;23.30;99.90;;;;;;5035183;28;20025;-50
2023/02/23 01:56:17;;;;;;;20.63;10.27;;;23.30;99.90;;;;;;5017278;28;20029;-50
2023/02/23 01:58:45;;;;;;;24.55;10.52;;;23.20;99.90;;;;;;5022303;28;20017;-50
2023/02/23 02:01:12;;;;;;;22.45;10.02;;;23.30;99.90;;;;;;5047781;23;20061;-56
2023/02/23 02:03:47;;;;;;;20.77;9.48;;;23.20;99.90;;;;;;5027195;28;20040;-55
2023/02/23 02:06:17;;;;;;;28.05;10.52;;;23.20;99.90;;;;;;5034707;28;20026;-56
2023/02/23 02:08:53;;;;;;;22.15;10.23;;;23.20;99.90;;;;;;5022218;28;20392;-55
2023/02/23 02:11:34;;;;;;;24.80;10.25;;;23.10;99.90;;;;;;5033835;28;20349;-55
2023/02/23 02:14:27;;;;;;;23.42;10.13;;;23.10;99.90;;;;;;5034539;28;20380;-55
2023/02/23 02:17:25;;;;;;;21.08;11.07;;;23.10;99.90;;;;;;5034624;28;20383;-55
2023/02/23 02:20:31;;;;;;;18.88;9.77;;;23.10;99.90;;;;;;5017534;28;20030;-55
2023/02/23 02:23:18;;;;;;;25.45;11.77;;;23.10;99.90;;;;;;5019723;28;20036;-54
2023/02/23 02:26:21;;;;;;;21.90;11.35;;;23.10;99.90;;;;;;5019397;28;20028;-55
2023/02/23 02:28:59;;;;;;;27.65;11.40;;;23.10;99.90;;;;;;5014628;28;20028;-55
2023/02/23 02:31:43;;;;;;;24.70;11.02;;;23.10;99.90;;;;;;5030984;28;20021;-55
2023/02/23 02:34:48;;;;;;;19.95;10.57;;;23.10;99.90;;;;;;5034567;28;20424;-55
2023/02/23 02:37:14;;;;;;;19.38;10.40;;;23.10;99.90;;;;;;5033926;28;20082;-55
2023/02/23 02:39:52;;;;;;;22.73;11.80;;;23.00;99.90;;;;;;5017833;28;20130;-55
2023/02/23 02:42:54;;;;;;;25.73;10.32;;;23.00;99.90;;;;;;5014275;28;20029;-56
2023/02/23 02:45:54;;;;;;;23.25;11.93;;;23.00;99.90;;;;;;5005638;28;20033;-57
2023/02/23 02:48:26;;;;;;;22.75;10.98;;;23.00;99.90;;;;;;5013394;28;20065;-55
2023/02/23 02:51:24;;;;;;;18.77;11.05;;;23.00;99.90;;;;;;5033795;28;20026;-56
2023/02/23 02:54:03;;;;;;;19.70;10.73;;;23.00;99.90;;;;;;5023090;28;20021;-56
2023/02/23 02:56:29;;;;;;;28.40;10.40;;;23.00;99.90;;;;;;5014103;28;20488;-56
2023/02/23 02:59:00;;;;;;;29.30;11.20;;;23.00;99.90;;;;;;5024975;28;20017;-56
2023/02/23 04:17:43;;;;;;;23.42;11.38;;;22.60;99.90;;;;;;4999365;28;20430;-50
2023/02/23 04:20:11;;;;;;;24.73;11.10;;;22.50;99.90;;;;;;5012420;28;20046;-49
2023/02/23 04:22:37;;;;;;;22.17;11.13;;;22.50;99.90;;;;;;5012618;28;20026;-49
2023/02/23 04:25:05;;;;;;;22.10;11.18;;;22.60;99.90;;;;;;5012460;28;20034;-49
2023/02/23 04:27:31;;;;;;;25.98;12.23;;;22.60;99.90;;;;;;5012395;28;20017;-50
2023/02/23 04:29:57;;;;;;;25.15;10.27;;;22.50;99.90;;;;;;5011162;28;20476;-49
2023/02/23 04:32:23;;;;;;;24.95;11.32;;;22.50;99.90;;;;;;5012378;28;20030;-49
2023/02/23 04:34:49;;;;;;;26.17;12.27;;;22.50;99.90;;;;;;5003977;28;20146;-50
2023/02/23 04:37:15;;;;;;;24.45;10.98;;;22.50;99.90;;;;;;4992974;28;20034;-49
2023/02/23 04:39:47;;;;;;;27.05;11.38;;;22.50;99.90;;;;;;5000084;28;20109;-49
2023/02/23 04:42:13;;;;;;;20.88;10.65;;;22.50;99.90;;;;;;4998356;28;20038;-50
2023/02/23 04:44:39;;;;;;;26.52;11.57;;;22.50;99.90;;;;;;4992627;28;20035;-49
2023/02/23 04:47:05;;;;;;;26.95;13.07;;;22.40;99.90;;;;;;5005668;28;20050;-50
2023/02/23 04:49:31;;;;;;;23.23;11.90;;;22.50;99.90;;;;;;5015260;28;20105;-49
2023/02/23 04:51:57;;;;;;;21.13;10.30;;;22.40;99.90;;;;;;5018666;28;20029;-50
2023/02/23 04:54:23;;;;;;;24.92;11.32;;;22.40;99.90;;;;;;5018864;28;20037;-50
2023/02/23 04:56:48;;;;;;;25.85;11.68;;;22.40;99.90;;;;;;5018770;28;20097;-50
2023/02/23 04:59:14;;;;;;;27.08;11.77;;;22.40;99.90;;;;;;5034815;23;20029;-56
2023/02/23 05:01:40;;;;;;;23.10;11.75;;;22.40;99.90;;;;;;5038331;28;20044;-55
2023/02/23 05:04:06;;;;;;;23.73;12.15;;;22.40;99.90;;;;;;5025102;28;20037;-56
2023/02/23 05:06:32;;;;;;;24.88;11.65;;;22.40;99.90;;;;;;5038426;28;20040;-55
2023/02/23 05:08:58;;;;;;;25.73;11.55;;;22.40;99.90;;;;;;5020465;28;20033;-56
2023/02/23 05:11:25;;;;;;;22.15;10.95;;;22.40;99.90;;;;;;5038411;28;20104;-57
2023/02/23 05:13:51;;;;;;;25.92;11.82;;;22.40;99.90;;;;;;5038082;28;20029;-56
2023/02/23 05:16:17;;;;;;;26.20;13.68;;;22.40;99.90;;;;;;5029566;28;20120;-57
2023/02/23 05:18:42;;;;;;;21.50;11.68;;;22.30;99.90;;;;;;5033104;28;20056;-56
2023/02/23 05:21:09;;;;;;;21.05;12.02;;;22.30;99.90;;;;;;5018314;28;20026;-55
2023/02/23 05:23:35;;;;;;;23.20;10.88;;;22.30;99.90;;;;;;5032479;28;20073;-56
2023/02/23 05:26:05;;;;;;;23.75;11.70;;;22.30;99.90;;;;;;5032065;28;20033;-56
2023/02/23 05:28:31;;;;;;;23.60;11.55;;;22.30;99.90;;;;;;5018473;28;20101;-56
2023/02/23 05:30:57;;;;;;;21.45;10.45;;;22.30;99.90;;;;;;5025247;28;20021;-56
2023/02/23 05:33:23;;;;;;;19.80;10.60;;;22.30;99.90;;;;;;5026373;28;20081;-55
2023/02/23 05:35:48;;;;;;;28.48;12.18;;;22.30;99.90;;;;;;5023411;28;20022;-55
2023/02/23 05:38:14;;;;;;;25.95;11.40;;;22.30;99.90;;;;;;5038371;28;20433;-56
2023/02/23 05:40:40;;;;;;;20.52;10.82;;;22.30;99.90;;;;;;5038016;28;20379;-55
2023/02/23 05:43:06;;;;;;;21.35;10.25;;;22.30;99.90;;;;;;5020074;28;20119;-56
2023/02/23 05:45:32;;;;;;;24.52;11.40;;;22.30;99.90;;;;;;5035944;28;20065;-55
2023/02/23 05:47:58;;;;;;;21.75;11.52;;;22.30;99.90;;;;;;5027114;28;20022;-55
2023/02/23 05:50:24;;;;;;;21.30;9.80;;;22.20;99.90;;;;;;5037819;28;20032;-56
2023/02/23 05:52:51;;;;;;;20.60;10.45;;;22.20;99.90;;;;;;5038037;28;20044;-57
2023/02/23 05:55:16;;;;;;;24.75;10.30;;;22.20;99.90;;;;;;5025165;28;20029;-56
2023/02/23 05:57:42;;;;;;;21.90;10.38;;;22.20;99.90;;;;;;5037823;28;20017;-57
2023/02/23 06:00:10;;;;;;;25.45;10.23;;;22.20;99.90;;;;;;5018033;28;20073;-56
2023/02/23 06:02:36;;;;;;;;;;;22.20;99.90;;;;;;5034493;28;20422;-57
2023/02/23 06:05:02;;;;;;;25.33;11.13;;;22.20;99.90;;;;;;5023185;28;20326;-56
2023/02/23 06:07:27;;;;;;;24.52;10.35;;;22.20;99.90;;;;;;5028062;28;20080;-57
2023/02/23 06:09:53;;;;;;;33.95;11.48;;;22.10;99.90;;;;;;5025988;28;20135;-57
2023/02/23 06:12:19;;;;;;;24.40;10.30;;;22.10;99.90;;;;;;5034822;28;20056;-54
2023/02/23 06:14:45;;;;;;;23.75;9.32;;;22.10;99.90;;;;;;5034334;28;20029;-56
2023/02/23 06:17:10;;;;;;;20.08;10.27;;;22.10;99.90;;;;;;5018463;28;20104;-54
2023/02/23 06:19:36;;;;;;;19.02;9.27;;;22.10;99.90;;;;;;5022559;28;20052;-54
2023/02/23 06:22:02;;;;;;;22.35;10.20;;;22.10;99.90;;;;;;5016632;28;20025;-53
2023/02/23 06:24:28;;;;;;;24.92;10.70;;;22.10;99.90;;;;;;5034383;28;20037;-54
2023/02/23 06:26:53;;;;;;;18.15;9.10;;;22.10;99.90;;;;;;5021743;28;20105;-54
2023/02/23 06:29:19;;;;;;;27.25;11.40;;;22.10;99.90;;;;;;5014573;28;20026;-54
2023/02/23 06:31:45;;;;;;;22.30;10.48;;;22.00;99.90;;;;;;5009604;28;20025;-53
2023/02/23 06:34:11;;;;;;;23.10;9.68;;;22.00;99.90;;;;;;5016499;28;20913;-56
2023/02/23 06:36:36;;;;;;;20.55;9.55;;;22.00;99.90;;;;;;5014401;28;20030;-56
2023/02/23 06:39:03;;;;;;;28.63;10.70;;;22.00;99.90;;;;;;5029116;28;20525;-56
2023/02/23 06:41:30;;;;;;;17.20;8.53;;;22.00;99.90;;;;;;5014412;28;20026;-57
2023/02/23 06:43:56;;;;;;;28.50;11.18;;;22.00;99.90;;;;;;5027023;28;20053;-56
2023/02/23 06:46:21;;;;;;;24.85;11.02;;;22.00;99.90;;;;;;5022736;28;20022;-56
2023/02/23 06:48:47;;;;;;;24.23;9.70;;;22.00;99.90;;;;;;5020566;28;20435;-57
2023/02/23 06:51:13;;;;;;;21.27;9.98;;;22.00;99.90;;;;;;5033599;28;20021;-56
2023/02/23 06:53:39;;;;;;;27.35;11.13;;;22.00;99.90;;;;;;5033781;28;20031;-57
2023/02/23 06:56:05;;;;;;;27.50;10.70;;;22.00;99.90;;;;;;5033692;28;20029;-56
2023/02/23 06:58:31;;;;;;;19.73;10.30;;;22.00;99.90;;;;;;5020236;28;20030;-56
2023/02/23 07:00:58;;;;;;;27.73;10.80;;;22.00;99.90;;;;;;5013498;28;20041;-55
2023/02/23 07:03:24;;;;;;;23.10;9.45;;;21.90;99.90;;;;;;5013835;28;20084;-56
2023/02/23 07:05:51;;;;;;;22.88;11.07;;;21.90;99.90;;;;;;5028205;28;20100;-56
2023/02/23 07:08:17;;;;;;;28.25;11.18;;;21.90;99.90;;;;;;5006665;28;20376;-56
2023/02/23 07:10:44;;;;;;;22.95;9.60;;;21.90;99.90;;;;;;5029145;28;20045;-55
2023/02/23 07:13:11;;;;;;;24.25;10.80;;;21.90;99.90;;;;;;5022375;28;20092;-56
2023/02/23 07:15:38;;;;;;;22.33;10.65;;;21.90;99.90;;;;;;5030922;28;20068;-57
2023/02/23 07:18:04;;;;;;;23.65;11.70;;;21.90;99.90;;;;;;5005327;28;20075;-56
2023/02/23 07:20:31;;;;;;;22.55;11.45;;;21.90;99.90;;;;;;5031548;28;20426;-58
2023/02/23 07:22:59;;;;;;;23.67;10.38;;;21.90;99.90;;;;;;5013411;28;20091;-57
2023/02/23 07:25:26;;;;;;;24.55;11.18;;;21.90;99.90;;;;;;5028492;28;20064;-56
2023/02/23 07:27:53;;;;;;;27.90;11.15;;;21.90;99.90;;;;;;5026064;28;20014;-56
2023/02/23 07:30:23;;;;;;;26.58;10.50;;;21.90;99.90;;;;;;5026536;28;20463;-57
2023/02/23 07:32:50;;;;;;;29.08;10.77;;;21.90;99.90;;;;;;5019416;28;20017;-55
2023/02/23 07:35:16;;;;;;;24.60;11.07;;;21.90;99.90;;;;;;5032878;28;20156;-56
2023/02/23 07:37:41;;;;;;;17.60;10.50;;;21.90;99.90;;;;;;5013305;28;20072;-55
2023/02/23 07:40:08;;;;;;;24.27;10.95;;;21.90;99.90;;;;;;5024474;28;20040;-55
2023/02/23 07:42:34;;;;;;;20.13;10.32;;;21.90;99.90;;;;;;5032861;28;20084;-56
2023/02/23 07:45:00;;;;;;;19.42;10.52;;;21.90;99.90;;;;;;5021376;28;20116;-56
2023/02/23 07:47:29;;;;;;;19.48;9.80;;;21.90;99.90;;;;;;5029601;28;20017;-56
2023/02/23 07:50:00;;;;;;;25.27;11.85;;;21.90;99.90;;;;;;5022588;28;20503;-56
2023/02/23 07:52:26;;;;;;;21.88;10.02;;;21.90;99.90;;;;;;5027584;28;20018;-57
2023/02/23 07:54:52;;;;;;;22.50;10.40;;;21.90;99.90;;;;;;5013108;28;20072;-57
2023/02/23 07:57:17;;;;;;;21.42;10.82;;;22.00;99.90;;;;;;5029008;28;20026;-55
2023/02/23 07:59:43;;;;;;;21.70;10.60;;;22.00;99.90;;;;;;5014608;28;20376;-55
2023/02/23 08:02:11;;;;;;;20.73;9.93;;;22.00;99.90;;;;;;5032484;28;20032;-55
2023/02/23 08:04:39;;;;;;;20.88;10.68;;;22.00;99.90;;;;;;5032457;28;20044;-55
2023/02/23 08:07:05;;;;;;;19.08;10.13;;;22.00;99.90;;;;;;5018685;28;20032;-55
2023/02/23 08:09:33;;;;;;;20.40;9.85;;;22.00;99.90;;;;;;5019943;28;20029;-55
2023/02/23 08:12:00;;;;;;;21.88;10.55;;;22.00;99.90;;;;;;5032385;28;20021;-55
2023/02/23 08:14:26;;;;;;;19.80;10.00;;;22.00;99.90;;;;;;5032255;28;20022;-55
2023/02/23 08:16:52;;;;;;;20.25;10.85;;;22.10;99.90;;;;;;5032430;28;20029;-57
2023/02/23 08:19:17;;;;;;;22.70;10.70;;;22.10;99.90;;;;;;5032246;28;20025;-57
2023/02/23 08:21:43;;;;;;;20.33;10.90;;;22.10;99.90;;;;;;5032077;28;20025;-57
2023/02/23 08:24:09;;;;;;;19.88;9.73;;;22.10;99.90;;;;;;5027134;28;20495;-58
2023/02/23 08:26:39;;;;;;;21.33;10.50;;;22.10;99.90;;;;;;4994855;28;20026;-59
2023/02/23 08:29:05;;;;;;;22.92;10.55;;;22.10;99.90;;;;;;5028678;28;20028;-57
2023/02/23 08:31:31;;;;;;;22.52;11.38;;;22.10;99.90;;;;;;5032110;28;20021;-57
2023/02/23 08:33:57;;;;;;;24.48;11.25;;;22.10;99.90;;;;;;5030547;28;20079;-58
2023/02/23 08:36:23;;;;;;;20.80;10.23;;;22.20;99.90;;;;;;5020135;28;20022;-56
2023/02/23 08:38:49;;;;;;;26.45;10.52;;;22.20;99.90;;;;;;5018307;28;20087;-55
2023/02/23 08:41:16;;;;;;;22.98;10.40;;;22.20;99.90;;;;;;5017366;28;20022;-55
2023/02/23 08:43:42;;;;;;;22.52;9.77;;;22.20;99.90;;;;;;4994826;28;20037;-55
2023/02/23 08:46:08;;;;;;;18.88;9.65;;;22.20;99.90;;;;;;5012228;28;20026;-56
2023/02/23 08:48:34;;;;;;;25.00;10.85;;;22.20;99.90;;;;;;5012375;28;20028;-56
2023/02/23 08:51:00;;;;;;;24.03;10.37;;;22.20;99.90;;;;;;5011434;28;20036;-56
2023/02/23 08:53:28;;;;;;;23.02;9.70;;;22.30;99.90;;;;;;5022813;28;20033;-56
2023/02/23 08:55:59;;;;;;;30.83;11.85;;;22.30;99.90;;;;;;5022861;28;20014;-58
2023/02/23 08:58:26;;;;;;;25.00;9.70;;;22.30;99.90;;;;;;5018575;28;20081;-59
2023/02/23 09:00:52;;;;;;;21.70;10.53;;;22.30;99.90;;;;;;5028299;28;20038;-58
2023/02/23 09:03:19;;;;;;;28.48;10.73;;;22.30;99.90;;;;;;5017984;28;20029;-58
2023/02/23 09:05:45;;;;;;;19.05;9.93;;;22.40;99.90;;;;;;5011494;28;20022;-57
2023/02/23 09:08:12;;;;;;;24.75;10.88;;;22.40;99.90;;;;;;5011552;28;20033;-58
2023/02/23 09:10:39;;;;;;;27.45;10.30;;;22.40;99.90;;;;;;5011589;28;20084;-56
2023/02/23 09:13:05;;;;;;;21.45;10.02;;;22.40;99.90;;;;;;5011495;28;20099;-58
2023/02/23 09:15:31;;;;;;;25.60;10.48;;;22.40;99.90;;;;;;5011464;28;20026;-58
2023/02/23 09:18:01;;;;;;;20.70;9.90;;;22.40;99.90;;;;;;5011913;28;20018;-59
2023/02/23 09:20:27;;;;;;;27.73;10.23;;;22.40;99.90;;;;;;5011694;28;20098;-59
2023/02/23 09:22:53;;;;;;;21.02;10.27;;;22.50;99.90;;;;;;5024639;28;20101;-57
2023/02/23 09:25:21;;;;;;;21.83;10.50;;;22.50;99.90;;;;;;5019780;28;20418;-56
2023/02/23 09:27:52;;;;;;;21.83;10.50;;;22.50;99.90;;;;;;5016923;28;20018;-57
2023/02/23 09:30:19;;;;;;;25.58;10.35;;;22.50;99.90;;;;;;5021038;28;20033;-57
2023/02/23 09:32:49;;;;;;;;;;;22.50;99.90;;;;;;5028388;28;20029;-56
2023/02/23 09:35:17;;;;;;;25.00;10.85;;;22.60;99.90;;;;;;5022799;28;19905;-58
2023/02/23 09:37:45;;;;;;;;;;;22.60;99.90;;;;;;5022715;28;20410;-58
2023/02/23 09:40:18;;;;;;;25.02;10.20;;;22.60;99.90;;;;;;5021419;28;20390;-57
2023/02/23 09:43:09;;;;;;;20.13;9.65;;;22.70;99.90;;;;;;5015999;28;20432;-58
2023/02/23 09:45:45;;;;;;;23.88;10.27;;;22.70;99.90;;;;;;5027140;28;20544;-57
2023/02/23 09:48:19;;;;;;;24.17;10.30;;;22.70;99.90;;;;;;5022121;28;20070;-58
2023/02/23 09:50:51;;;;;;;21.70;9.93;;;22.70;99.90;;;;;;5018842;28;20033;-58
2023/02/23 09:53:37;;;;;;;23.17;9.55;;;22.70;99.90;;;;;;5024515;28;20022;-58
2023/02/23 09:56:17;;;;;;;32.50;10.52;;;22.70;99.90;;;;;;5016784;28;20041;-58
2023/02/23 09:58:43;;;;;;;19.48;9.63;;;22.70;99.90;;;;;;5011276;28;20551;-59
2023/02/23 10:01:38;;;;;;;21.63;10.05;;;22.80;99.90;;;;;;5027689;28;20071;-56
2023/02/23 10:04:17;;;;;;;22.48;9.48;;;22.80;99.90;;;;;;5028792;28;20041;-56
2023/02/23 10:06:59;;;;;;;19.58;9.32;;;22.80;99.90;;;;;;5018653;28;20049;-57
2023/02/23 10:09:40;;;;;;;21.38;8.32;;;22.90;99.90;;;;;;5021346;28;20022;-57
2023/02/23 10:12:21;;;;;;;20.27;9.68;;;22.90;99.90;;;;;;5014446;28;20025;-57
2023/02/23 10:14:58;;;;;;;20.23;9.32;;;22.90;99.90;;;;;;5018165;28;20124;-57
2023/02/23 10:17:42;;;;;;;21.08;9.98;;;23.00;99.90;;;;;;5023763;28;20030;-57
2023/02/23 10:20:26;;;;;;;22.70;9.98;;;23.00;99.90;;;;;;5019886;28;20029;-56
2023/02/23 10:22:54;;;;;;;18.73;8.82;;;23.00;99.90;;;;;;5025140;28;20034;-55
2023/02/23 10:25:27;;;;;;;26.77;10.25;;;23.10;99.90;;;;;;5026341;28;20025;-56
2023/02/23 10:27:55;;;;;;;19.08;8.90;;;23.10;99.90;;;;;;5013964;28;20021;-55
2023/02/23 10:30:24;;;;;;;23.23;9.30;;;23.10;99.90;;;;;;5010253;28;20117;-56
2023/02/23 10:33:12;;;;;;;17.05;8.45;;;23.20;99.90;;;;;;5024725;28;20049;-56
2023/02/23 10:35:39;;;;;;;21.23;9.13;;;23.20;99.90;;;;;;5019385;28;20034;-56
2023/02/23 10:38:04;;;;;;;22.83;10.10;;;23.20;99.90;;;;;;5019480;28;20030;-56
2023/02/23 10:40:34;;;;;;;31.98;10.27;;;23.30;99.90;;;;;;5018347;28;20028;-57
2023/02/23 10:43:01;;;;;;;26.83;11.27;;;23.30;99.90;;;;;;5013585;28;20037;-56
2023/02/23 10:45:28;;;;;;;21.10;8.80;;;23.30;99.90;;;;;;5016403;28;20342;-56
2023/02/23 10:48:15;;;;;;;29.75;9.27;;;23.30;99.90;;;;;;5023535;28;20018;-56
2023/02/23 10:50:44;;;;;;;30.05;9.32;;;23.40;99.90;;;;;;5022432;28;20156;-56
2023/02/23 10:53:25;;;;;;;30.50;9.40;;;23.40;99.90;;;;;;5019471;28;20028;-56
2023/02/23 10:56:19;;;;;;;36.45;10.98;;;23.40;99.90;;;;;;5013258;28;20488;-56
2023/02/23 10:58:50;;;;;;;28.48;9.43;;;23.40;99.90;;;;;;5019958;28;20030;-55
2023/02/23 11:01:37;;;;;;;34.95;9.70;;;23.50;99.90;;;;;;5019180;28;20042;-56
2023/02/23 11:04:21;;;;;;;33.88;10.07;;;23.50;99.90;;;;;;5019145;28;20030;-56
2023/02/23 11:06:47;;;;;;;31.25;8.95;;;23.50;99.90;;;;;;5013519;28;20014;-55
2023/02/23 11:09:29;;;;;;;36.63;10.40;;;23.50;99.90;;;;;;5024397;28;20040;-56
2023/02/23 11:11:57;;;;;;;24.38;9.60;;;23.60;99.90;;;;;;5024039;28;20498;-56
2023/02/23 11:14:28;;;;;;;35.97;9.85;;;23.60;99.90;;;;;;5015211;28;20029;-56
2023/02/23 11:16:59;;;;;;;28.55;10.00;;;23.60;99.90;;;;;;4991222;28;20479;-55
2023/02/23 11:19:37;;;;;;;32.67;10.25;;;23.60;99.90;;;;;;4996283;28;20476;-56
2023/02/23 11:22:05;;;;;;;38.05;9.70;;;23.60;99.90;;;;;;5020951;28;20369;-57
2023/02/23 11:24:37;;;;;;;39.35;8.98;;;23.70;99.90;;;;;;5023268;28;20091;-57
2023/02/23 11:27:05;;;;;;;38.97;9.25;;;23.70;99.90;;;;;;5016654;28;20026;-57
2023/02/23 11:29:35;;;;;;;30.25;8.88;;;23.70;99.90;;;;;;5019853;28;20112;-57
2023/02/23 11:32:25;;;;;;;30.95;9.43;;;23.80;99.90;;;;;;5020564;28;20036;-58
2023/02/23 11:35:12;;;;;;;31.05;9.82;;;23.80;99.90;;;;;;5018706;28;20030;-57
2023/02/23 11:37:38;;;;;;;24.38;8.05;;;23.80;99.90;;;;;;5009636;28;20095;-57
2023/02/23 11:40:22;;;;;;;33.85;9.30;;;23.80;99.90;;;;;;5018305;28;20364;-57
2023/02/23 11:43:12;;;;;;;30.95;7.90;;;23.90;99.90;;;;;;5012368;28;20037;-57
2023/02/23 11:45:45;;;;;;;39.70;9.30;;;23.90;99.90;;;;;;5010598;28;20059;-57
2023/02/23 11:48:30;;;;;;;32.53;9.18;;;23.90;99.90;;;;;;5012058;28;20502;-56
2023/02/23 11:50:56;;;;;;;28.48;7.72;;;23.90;99.90;;;;;;5009068;28;20025;-56
2023/02/23 11:53:44;;;;;;;36.03;8.73;;;24.00;99.90;;;;;;5031477;28;20100;-56
2023/02/23 11:56:11;;;;;;;35.65;8.68;;;24.00;99.90;;;;;;5021535;28;20033;-56
2023/02/23 11:58:48;;;;;;;30.20;9.10;;;24.00;99.90;;;;;;5029195;28;20475;-57
2023/02/23 12:01:16;;;;;;;33.65;8.80;;;24.00;99.90;;;;;;5027003;28;20095;-57
2023/02/23 12:03:54;;;;;;;35.67;8.48;;;24.10;99.90;;;;;;5018655;28;20517;-57
2023/02/23 12:06:38;;;;;;;44.55;10.30;;;24.10;99.90;;;;;;5025479;28;20044;-57
2023/02/23 12:09:19;;;;;;;22.13;8.20;;;24.10;99.90;;;;;;5019115;28;20021;-56
2023/02/23 12:12:01;;;;;;;34.42;10.13;;;24.20;99.90;;;;;;5026232;28;20033;-57
2023/02/23 12:14:42;;;;;;;42.08;8.65;;;24.20;99.90;;;;;;5012621;28;20105;-57
2023/02/23 12:17:46;;;;;;;31.52;9.65;;;24.20;99.90;;;;;;5031362;28;20014;-57
2023/02/23 12:20:23;;;;;;;31.83;8.18;;;24.20;99.90;;;;;;4998859;28;20061;-58
2023/02/23 12:22:56;;;;;;;28.98;9.50;;;24.20;99.90;;;;;;5032414;28;20026;-58
2023/02/23 12:25:34;;;;;;;25.40;8.02;;;24.30;99.90;;;;;;5032105;28;20053;-58
2023/02/23 12:28:37;;;;;;;23.67;7.78;;;24.30;99.90;;;;;;5020378;28;20056;-58
2023/02/23 12:31:24;;;;;;;24.17;7.15;;;24.30;99.90;;;;;;5020565;28;20427;-58
2023/02/23 12:34:18;;;;;;;24.25;8.35;;;24.30;99.90;;;;;;5031957;28;20100;-58
2023/02/23 12:36:54;;;;;;;29.85;9.45;;;24.30;99.90;;;;;;5018224;28;20029;-58
2023/02/23 12:39:23;;;;;;;19.20;7.78;;;24.40;99.90;;;;;;5012708;28;20026;-58
2023/02/23 12:42:19;;;;;;;20.90;7.05;;;24.40;99.90;;;;;;5012565;28;20021;-58
2023/02/23 12:45:00;;;;;;;28.70;6.57;;;24.40;99.90;;;;;;5031797;28;20037;-58
2023/02/23 12:47:26;;;;;;;24.58;6.60;;;24.40;99.90;;;;;;5018610;28;20089;-58
2023/02/23 12:50:11;;;;;;;21.90;7.35;;;24.40;99.90;;;;;;5031829;28;20029;-56
2023/02/23 12:52:47;;;;;;;26.85;9.23;;;24.40;99.90;;;;;;5016137;28;20017;-58
2023/02/23 12:55:13;;;;;;;26.20;7.32;;;24.40;99.90;;;;;;5031705;28;20021;-56
2023/02/23 12:57:57;;;;;;;21.05;6.75;;;24.40;99.90;;;;;;5031763;28;20066;-57
2023/02/23 13:00:34;;;;;;;20.05;7.32;;;24.50;99.90;;;;;;5015184;28;20049;-55
2023/02/23 13:03:15;;;;;;;25.52;7.60;;;24.50;99.90;;;;;;5030019;28;20022;-57
2023/02/23 13:06:00;;;;;;;19.40;7.53;;;24.50;99.90;;;;;;5017701;28;20030;-58
2023/02/23 13:08:57;;;;;;;25.95;7.28;;;24.50;99.90;;;;;;5020293;28;20105;-58
2023/02/23 13:11:34;;;;;;;17.48;5.95;;;24.50;99.90;;;;;;5034482;28;20041;-58
2023/02/23 13:14:12;;;;;;;15.98;5.60;;;24.50;99.90;;;;;;5035513;28;20100;-57
2023/02/23 13:16:50;;;;;;;16.42;5.78;;;24.50;99.90;;;;;;5023272;28;20083;-58
2023/02/23 13:19:19;;;;;;;18.48;5.72;;;24.50;99.90;;;;;;5020444;28;20022;-58
2023/02/23 13:21:57;;;;;;;18.52;5.22;;;24.50;99.90;;;;;;5035224;28;20025;-58
2023/02/23 13:24:29;;;;;;;20.25;5.45;;;24.50;99.90;;;;;;5035198;28;20025;-58
2023/02/23 13:27:00;;;;;;;23.13;6.20;;;24.50;99.90;;;;;;5035511;28;20479;-57
2023/02/23 13:29:38;;;;;;;17.00;5.40;;;24.50;99.90;;;;;;5032441;28;20038;-58
2023/02/23 13:32:11;;;;;;;16.25;4.93;;;24.50;99.90;;;;;;5015649;28;20022;-58
2023/02/23 13:34:57;;;;;;;18.20;6.22;;;24.50;99.90;;;;;;5020977;28;20021;-58
2023/02/23 13:37:44;;;;;;;17.48;6.20;;;24.50;99.90;;;;;;5034925;28;20087;-58
2023/02/23 13:40:19;;;;;;;;;;;24.50;99.90;;;;;;5035640;28;20108;-58
2023/02/23 13:43:01;;;;;;;19.35;5.32;;;24.60;99.90;;;;;;5017500;28;20307;-58
2023/02/23 13:45:57;;;;;;;14.02;5.70;;;24.60;99.90;;;;;;4998239;28;20491;-61
2023/02/23 13:48:37;;;;;;;11.65;5.40;;;24.60;99.90;;;;;;5024456;28;20018;-57
2023/02/23 13:51:38;;;;;;;13.77;6.10;;;24.60;99.90;;;;;;5034676;28;20071;-57
2023/02/23 13:54:23;;;;;;;14.18;5.47;;;24.60;99.90;;;;;;5024351;28;20047;-57
2023/02/23 13:56:54;;;;;;;18.95;5.43;;;24.60;99.90;;;;;;5034890;28;20025;-57
2023/02/23 13:59:29;;;;;;;13.23;5.22;;;24.60;99.90;;;;;;4999520;28;20071;-57
2023/02/23 14:01:56;;;;;;;13.85;5.75;;;24.70;99.90;;;;;;5017408;28;20537;-57
2023/02/23 14:04:27;;;;;;;12.73;6.47;;;24.70;99.90;;;;;;5032796;28;20124;-58
2023/02/23 14:07:17;;;;;;;14.82;6.60;;;24.70;99.90;;;;;;5024519;28;20014;-58
2023/02/23 14:09:46;;;;;;;14.98;6.50;;;24.70;99.90;;;;;;5026830;28;20044;-57
2023/02/23 14:12:24;;;;;;;12.93;5.55;;;24.70;99.90;;;;;;5034616;28;20053;-59
2023/02/23 14:14:50;;;;;;;12.50;5.55;;;24.70;99.90;;;;;;5014778;28;20014;-58